createdAt,value
2019-03-09T00:03:46.487Z,4
2019-03-09T00:08:48.953Z,6
2019-03-09T00:13:51.504Z,7
2019-03-09T00:18:53.881Z,4
2019-03-09T00:23:56.318Z,11
2019-03-09T00:28:58.782Z,5
2019-03-09T00:34:01.409Z,6
2019-03-09T00:39:03.692Z,4
2019-03-09T00:44:06.400Z,4
2019-03-09T00:49:08.615Z,4
2019-03-09T00:54:11.092Z,10
2019-03-09T00:59:13.681Z,6
2019-03-09T01:04:16.009Z,4
2019-03-09T01:09:23.417Z,6
2019-03-09T01:14:20.956Z,4
2019-03-09T01:19:23.485Z,8
2019-03-09T01:24:25.809Z,6
2019-03-09T01:29:28.272Z,12
2019-03-09T01:34:30.730Z,7
2019-03-09T01:39:33.237Z,6
2019-03-09T01:44:35.698Z,7
2019-03-09T01:49:38.107Z,4
2019-03-09T01:54:45.538Z,10
2019-03-09T01:59:43.023Z,4
2019-03-09T02:04:45.492Z,8
2019-03-09T02:09:47.970Z,15
2019-03-09T02:14:50.387Z,8
2019-03-09T02:19:52.855Z,4
2019-03-09T02:24:55.286Z,6
2019-03-09T02:29:57.770Z,8
2019-03-09T02:35:00.448Z,7
2019-03-09T02:40:02.683Z,8
2019-03-09T02:45:05.151Z,4
2019-03-09T02:50:07.622Z,3
2019-03-09T02:55:10.088Z,6
2019-03-09T03:00:17.485Z,8
2019-03-09T03:05:15.017Z,10
2019-03-09T03:10:17.457Z,6
2019-03-09T03:15:20.039Z,12
2019-03-09T03:20:22.651Z,4
2019-03-09T03:25:24.846Z,4
2019-03-09T03:30:27.291Z,6
2019-03-09T03:40:32.202Z,6
2019-03-09T03:45:34.669Z,5
2019-03-09T03:50:37.100Z,6
2019-03-09T03:55:39.542Z,9
2019-03-09T04:00:42.032Z,6
2019-03-09T04:05:44.630Z,4
2019-03-09T04:10:46.950Z,4
2019-03-09T04:15:49.404Z,6
2019-03-09T04:20:52.157Z,3
2019-03-09T04:25:54.329Z,4
2019-03-09T04:30:56.756Z,5
2019-03-09T04:35:59.238Z,5
2019-03-09T04:41:01.676Z,1
2019-03-09T04:46:04.159Z,2
2019-03-09T04:51:06.602Z,3
2019-03-09T04:56:09.102Z,5
2019-03-09T05:01:16.495Z,5
2019-03-09T05:06:13.960Z,5
2019-03-09T05:11:16.490Z,3
2019-03-09T05:16:18.896Z,4
2019-03-09T05:21:21.339Z,7
2019-03-09T05:26:23.785Z,6
2019-03-09T05:31:26.251Z,3
2019-03-09T05:36:28.705Z,5
2019-03-09T05:41:31.217Z,4
2019-03-09T05:46:33.651Z,4
2019-03-09T05:51:36.075Z,5
2019-03-09T05:56:38.814Z,6
2019-03-09T06:01:40.991Z,4
2019-03-09T06:06:43.490Z,4
2019-03-09T06:11:45.947Z,5
2019-03-09T06:16:48.377Z,6
2019-03-09T06:21:51.108Z,3
2019-03-09T06:31:55.928Z,4
2019-03-09T06:36:58.177Z,5
2019-03-09T06:42:00.683Z,10
2019-03-09T06:47:03.253Z,3
2019-03-09T06:52:05.561Z,2
2019-03-09T06:57:13.697Z,5
2019-03-09T07:02:10.473Z,3
2019-03-09T07:07:12.922Z,1
2019-03-09T07:12:15.404Z,2
2019-03-09T07:17:17.853Z,2
2019-03-09T07:22:20.598Z,2
2019-03-09T07:27:22.778Z,1
2019-03-09T07:32:25.234Z,2
2019-03-09T07:37:27.673Z,2
2019-03-09T07:42:30.199Z,1
2019-03-09T07:47:32.648Z,1
2019-03-09T07:52:35.032Z,1
2019-03-09T07:57:37.497Z,1
2019-03-09T08:02:39.976Z,1
2019-03-09T08:07:42.435Z,1
2019-03-09T08:12:44.870Z,1
2019-03-09T08:17:47.363Z,1
2019-03-09T08:22:49.817Z,1
2019-03-09T08:27:52.294Z,1
2019-03-09T08:32:54.752Z,1
2019-03-09T08:37:57.184Z,2
2019-03-09T08:42:59.619Z,2
2019-03-09T08:48:07.091Z,1
2019-03-09T08:53:04.593Z,1
2019-03-09T08:58:07.019Z,1
2019-03-09T09:03:09.449Z,2
2019-03-09T09:08:11.914Z,1
2019-03-09T09:13:14.390Z,2
2019-03-09T09:18:16.844Z,3
2019-03-09T09:23:24.613Z,1
2019-03-09T09:28:21.747Z,2
2019-03-09T09:33:24.193Z,1
2019-03-09T09:38:26.643Z,1
2019-03-09T09:43:29.233Z,1
2019-03-09T09:48:31.730Z,2
2019-03-09T09:53:34.018Z,1
2019-03-09T09:58:36.619Z,1
2019-03-09T10:03:38.925Z,1
2019-03-09T10:08:41.515Z,1
2019-03-09T10:13:43.878Z,0
2019-03-09T10:18:46.381Z,1
2019-03-09T10:23:49.062Z,1
2019-03-09T10:28:51.245Z,2
2019-03-09T10:33:53.689Z,1
2019-03-09T10:38:56.168Z,1
2019-03-09T10:43:58.597Z,2
2019-03-09T10:49:01.244Z,2
2019-03-09T10:54:03.853Z,1
2019-03-09T11:04:08.428Z,2
2019-03-09T11:09:10.878Z,3
2019-03-09T11:14:13.405Z,2
2019-03-09T11:19:15.814Z,1
2019-03-09T11:24:18.291Z,2
2019-03-09T11:29:20.836Z,1
2019-03-09T11:34:23.180Z,2
2019-03-09T11:39:25.667Z,2
2019-03-09T11:44:28.076Z,1
2019-03-09T11:49:30.606Z,1
2019-03-09T11:54:33.290Z,2
2019-03-09T11:59:35.453Z,2
2019-03-09T12:04:46.244Z,1
2019-03-09T12:09:40.391Z,3
2019-03-09T12:14:42.930Z,1
2019-03-09T12:19:45.362Z,1
2019-03-09T12:24:47.786Z,1
2019-03-09T12:29:50.205Z,2
2019-03-09T12:34:52.641Z,2
2019-03-09T12:39:55.107Z,1
2019-03-09T12:44:57.560Z,1
2019-03-09T12:50:00.012Z,1
2019-03-09T12:55:02.538Z,3
2019-03-09T13:00:05.029Z,5
2019-03-09T13:05:07.425Z,1
2019-03-09T13:10:09.863Z,2
2019-03-09T13:15:12.405Z,1
2019-03-09T13:20:14.773Z,1
2019-03-09T13:25:17.470Z,1
2019-03-09T13:30:19.694Z,1
2019-03-09T13:35:22.227Z,1
2019-03-09T13:40:24.606Z,1
2019-03-09T13:45:27.101Z,3
2019-03-09T13:50:29.509Z,1
2019-03-09T13:55:31.977Z,1
2019-03-09T14:00:40.301Z,2
2019-03-09T14:05:36.937Z,1
2019-03-09T14:10:39.389Z,3
2019-03-09T14:15:41.785Z,1
2019-03-09T14:20:44.276Z,1
2019-03-09T14:25:46.701Z,1
2019-03-09T14:30:49.175Z,2
2019-03-09T14:35:51.675Z,1
2019-03-09T14:40:54.092Z,1
2019-03-09T14:45:56.522Z,2
2019-03-09T14:50:59.046Z,1
2019-03-09T14:56:01.482Z,1
2019-03-09T15:01:03.976Z,1
2019-03-09T15:06:06.470Z,2
2019-03-09T15:11:08.864Z,2
2019-03-09T15:16:11.266Z,1
2019-03-09T15:21:13.752Z,1
2019-03-09T15:26:16.298Z,1
2019-03-09T15:31:18.864Z,2
2019-03-09T15:36:21.103Z,2
2019-03-09T15:41:23.561Z,2
2019-03-09T15:46:26.097Z,4
2019-03-09T15:51:28.510Z,2
2019-03-09T15:56:31.273Z,1
2019-03-09T16:01:33.429Z,1
2019-03-09T16:06:35.848Z,2
2019-03-09T16:11:44.773Z,1
2019-03-09T16:16:40.889Z,1
2019-03-09T16:21:43.246Z,4
2019-03-09T16:26:45.670Z,2
2019-03-09T16:31:48.152Z,3
2019-03-09T16:36:50.605Z,3
2019-03-09T16:41:53.059Z,3
2019-03-09T16:46:55.502Z,2
2019-03-09T16:51:57.959Z,2
2019-03-09T16:57:00.719Z,1
2019-03-09T17:02:07.880Z,1
2019-03-09T17:07:05.433Z,1
2019-03-09T17:12:07.853Z,1
2019-03-09T17:17:10.263Z,1
2019-03-09T17:22:12.780Z,2
2019-03-09T17:27:15.172Z,1
2019-03-09T17:32:25.497Z,2
2019-03-09T17:37:20.069Z,1
2019-03-09T17:42:22.534Z,2
2019-03-09T17:47:25.017Z,1
2019-03-09T17:52:27.573Z,2
2019-03-09T17:57:30.205Z,2
2019-03-09T18:02:32.392Z,1
2019-03-09T18:07:35.070Z,2
2019-03-09T18:12:37.296Z,2
2019-03-09T18:17:39.761Z,3
2019-03-09T18:22:42.329Z,1
2019-03-09T18:27:45.008Z,1
2019-03-09T18:32:47.137Z,1
2019-03-09T18:37:49.576Z,2
2019-03-09T18:42:52.044Z,2
2019-03-09T18:47:54.499Z,1
2019-03-09T18:52:56.976Z,2
2019-03-09T18:57:59.427Z,3
2019-03-09T19:03:01.910Z,1
2019-03-09T19:08:04.408Z,1
2019-03-09T19:13:06.818Z,3
2019-03-09T19:18:09.263Z,2
2019-03-09T19:23:11.859Z,1
2019-03-09T19:28:14.506Z,1
2019-03-09T19:33:16.624Z,3
2019-03-09T19:38:19.116Z,3
2019-03-09T19:43:21.544Z,2
2019-03-09T19:48:23.989Z,3
2019-03-09T19:53:26.579Z,2
2019-03-09T19:58:29.219Z,2
2019-03-09T20:03:31.439Z,2
2019-03-09T20:08:33.831Z,2
2019-03-09T20:13:36.655Z,2
2019-03-09T20:18:38.750Z,3
2019-03-09T20:23:41.223Z,3
2019-03-09T20:28:43.666Z,2
2019-03-09T20:33:46.276Z,2
2019-03-09T20:38:48.603Z,5
2019-03-09T20:43:51.049Z,3
2019-03-09T20:48:53.491Z,3
2019-03-09T20:53:55.955Z,2
2019-03-09T20:58:58.501Z,6
2019-03-09T21:04:01.138Z,2
2019-03-09T21:09:03.343Z,3
2019-03-09T21:14:05.787Z,6
2019-03-09T21:19:08.225Z,4
2019-03-09T21:24:10.738Z,3
2019-03-09T21:29:13.445Z,4
2019-03-09T21:34:15.596Z,4
2019-03-09T21:39:18.070Z,3
2019-03-09T21:44:20.525Z,2
2019-03-09T21:49:23.061Z,5
2019-03-09T21:54:25.430Z,4
2019-03-09T21:59:27.892Z,3
2019-03-09T22:04:30.381Z,4
2019-03-09T22:09:32.834Z,5
2019-03-09T22:14:35.272Z,3
2019-03-09T22:19:37.719Z,3
2019-03-09T22:24:40.292Z,5
2019-03-09T22:29:42.925Z,3
2019-03-09T22:34:45.097Z,5
2019-03-09T22:39:47.622Z,5
2019-03-09T22:44:50.076Z,3
2019-03-09T22:49:52.516Z,3
2019-03-09T22:54:55.065Z,4
2019-03-09T22:59:57.708Z,7
2019-03-09T23:04:59.878Z,3
2019-03-09T23:10:07.662Z,5
2019-03-09T23:15:04.826Z,4
2019-03-09T23:20:07.261Z,4
2019-03-09T23:25:09.765Z,6
2019-03-09T23:30:17.208Z,3
2019-03-09T23:35:14.658Z,2
2019-03-09T23:40:17.116Z,5
2019-03-09T23:45:19.598Z,2
2019-03-09T23:50:22.043Z,4
2019-03-09T23:55:24.560Z,2
